createdAt,value
2017-12-06T00:02:05.202Z,11.17
2017-12-06T00:06:49.345Z,11.73
2017-12-06T00:11:33.445Z,11.60
2017-12-06T00:16:17.744Z,12.80
2017-12-06T00:21:02.000Z,11.33
2017-12-06T00:25:46.117Z,11.40
2017-12-06T00:30:30.324Z,11.03
2017-12-06T00:35:15.266Z,11.37
2017-12-06T00:39:59.448Z,10.47
2017-12-06T00:44:43.530Z,11.07
2017-12-06T00:49:27.582Z,10.27
2017-12-06T00:54:11.718Z,10.73
2017-12-06T00:58:55.795Z,10.90
2017-12-06T01:03:40.004Z,10.50
2017-12-06T01:08:24.199Z,9.90
2017-12-06T01:13:08.361Z,9.80
2017-12-06T01:17:53.289Z,9.90
2017-12-06T01:22:37.346Z,11.70
2017-12-06T01:27:22.228Z,10.80
2017-12-06T01:32:06.379Z,10.33
2017-12-06T01:36:50.537Z,10.97
2017-12-06T01:41:34.769Z,10.83
2017-12-06T01:46:18.862Z,10.93
2017-12-06T01:51:02.934Z,10.80
2017-12-06T01:55:47.041Z,10.43
2017-12-06T02:00:31.180Z,11.63
2017-12-06T02:05:15.327Z,10.07
2017-12-06T02:10:00.212Z,10.23
2017-12-06T02:14:44.322Z,9.60
2017-12-06T02:19:28.775Z,11.03
2017-12-06T02:24:12.862Z,9.73
2017-12-06T02:28:57.878Z,10.50
2017-12-06T02:33:42.031Z,10.13
2017-12-06T02:38:26.116Z,10.93
2017-12-06T02:45:19.624Z,11.20
2017-12-06T02:50:03.823Z,9.73
2017-12-06T02:54:47.992Z,10.40
2017-12-06T02:59:32.189Z,10.40
2017-12-06T03:04:16.386Z,10.67
2017-12-06T03:09:00.518Z,10.07
2017-12-06T03:13:45.430Z,10.93
2017-12-06T03:18:29.926Z,11.50
2017-12-06T03:23:14.070Z,10.53
2017-12-06T03:27:58.106Z,10.43
2017-12-06T03:32:42.992Z,11.70
2017-12-06T03:37:27.097Z,10.80
2017-12-06T03:42:11.228Z,10.37
2017-12-06T03:46:56.277Z,10.43
2017-12-06T03:51:40.456Z,9.50
2017-12-06T03:56:25.395Z,10.00
2017-12-06T04:01:10.203Z,10.83
2017-12-06T04:05:54.331Z,10.30
2017-12-06T04:10:39.043Z,10.47
2017-12-06T04:15:24.017Z,10.90
2017-12-06T04:20:08.260Z,9.87
2017-12-06T04:24:52.419Z,10.33
2017-12-06T04:29:36.594Z,9.73
2017-12-06T04:34:20.689Z,10.53
2017-12-06T04:39:05.289Z,10.60
2017-12-06T04:43:49.432Z,9.57
2017-12-06T04:48:33.559Z,10.03
2017-12-06T04:53:17.674Z,10.80
2017-12-06T04:58:01.829Z,10.03
2017-12-06T05:02:47.863Z,9.53
2017-12-06T05:07:31.968Z,10.47
2017-12-06T05:12:16.126Z,10.27
2017-12-06T05:17:01.045Z,11.27
2017-12-06T05:21:45.971Z,10.00
2017-12-06T05:26:30.135Z,9.27
2017-12-06T05:31:14.210Z,9.43
2017-12-06T05:35:58.348Z,9.07
2017-12-06T05:40:42.546Z,9.57
2017-12-06T05:45:26.680Z,9.67
2017-12-06T05:50:10.783Z,8.27
2017-12-06T05:54:54.898Z,9.00
2017-12-06T05:59:39.038Z,8.53
2017-12-06T06:04:23.549Z,10.10
2017-12-06T06:09:07.738Z,8.23
2017-12-06T06:13:51.830Z,9.37
2017-12-06T06:18:35.933Z,9.03
2017-12-06T06:23:20.048Z,8.77
2017-12-06T06:28:05.215Z,9.03
2017-12-06T06:32:49.684Z,9.03
2017-12-06T06:37:33.908Z,8.33
2017-12-06T06:42:18.062Z,8.73
2017-12-06T06:47:02.154Z,9.33
2017-12-06T06:51:46.307Z,8.73
2017-12-06T06:56:30.494Z,8.80
2017-12-06T07:01:14.704Z,9.20
2017-12-06T07:05:58.891Z,9.33
2017-12-06T07:10:42.984Z,9.30
2017-12-06T07:15:27.070Z,10.33
2017-12-06T07:20:11.202Z,10.07
2017-12-06T07:24:56.156Z,9.73
2017-12-06T07:29:40.302Z,9.67
2017-12-06T07:34:24.489Z,9.47
2017-12-06T07:39:08.615Z,10.03
2017-12-06T07:43:52.690Z,10.40
2017-12-06T07:48:36.854Z,9.83
2017-12-06T07:53:21.002Z,9.77
2017-12-06T07:58:10.752Z,10.73
2017-12-06T08:02:54.876Z,10.20
2017-12-06T08:07:39.054Z,10.10
2017-12-06T08:12:23.200Z,10.07
2017-12-06T08:17:07.299Z,10.30
2017-12-06T08:21:52.108Z,10.17
2017-12-06T08:26:36.253Z,10.93
2017-12-06T08:31:20.351Z,11.10
2017-12-06T08:36:04.917Z,10.37
2017-12-06T08:40:48.990Z,11.43
2017-12-06T08:45:33.858Z,11.43
2017-12-06T08:50:17.914Z,11.40
2017-12-06T08:55:02.075Z,11.83
2017-12-06T08:59:46.174Z,11.57
2017-12-06T09:04:30.315Z,10.53
2017-12-06T09:09:14.632Z,10.93
2017-12-06T09:13:59.500Z,11.17
2017-12-06T09:18:43.594Z,10.53
2017-12-06T09:23:27.650Z,11.00
2017-12-06T09:28:11.798Z,10.20
2017-12-06T09:32:55.933Z,10.40
2017-12-06T09:37:40.125Z,11.23
2017-12-06T09:42:24.821Z,10.77
2017-12-06T09:47:09.734Z,10.43
2017-12-06T09:51:54.106Z,11.63
2017-12-06T09:56:38.559Z,11.03
2017-12-06T10:01:22.896Z,10.67
2017-12-06T10:06:08.037Z,10.53
2017-12-06T10:10:53.264Z,11.17
2017-12-06T10:15:37.633Z,11.33
2017-12-06T10:20:21.957Z,10.63
2017-12-06T10:25:06.372Z,11.33
2017-12-06T10:29:51.479Z,11.77
2017-12-06T10:34:35.845Z,11.83
2017-12-06T10:39:20.244Z,10.70
2017-12-06T10:44:04.750Z,11.63
2017-12-06T10:48:49.144Z,11.57
2017-12-06T10:53:33.527Z,13.90
2017-12-06T10:58:17.870Z,10.63
2017-12-06T11:03:04.198Z,10.73
2017-12-06T11:07:48.607Z,12.00
2017-12-06T11:12:32.936Z,10.70
2017-12-06T11:17:17.344Z,10.67
2017-12-06T11:22:01.802Z,10.60
2017-12-06T11:26:46.199Z,12.00
2017-12-06T11:31:30.823Z,11.13
2017-12-06T11:36:15.174Z,11.27
2017-12-06T11:41:00.314Z,11.77
2017-12-06T11:45:44.824Z,11.87
2017-12-06T11:50:29.371Z,11.67
2017-12-06T11:55:13.832Z,10.67
2017-12-06T11:59:58.295Z,10.70
2017-12-06T12:04:42.812Z,11.00
2017-12-06T12:09:27.213Z,11.23
2017-12-06T12:14:11.656Z,10.30
2017-12-06T12:18:56.063Z,10.83
2017-12-06T12:23:40.536Z,10.53
2017-12-06T12:28:24.925Z,10.93
2017-12-06T12:33:09.470Z,10.93
2017-12-06T12:37:54.025Z,11.20
2017-12-06T12:42:38.617Z,10.10
2017-12-06T12:47:23.078Z,10.47
2017-12-06T12:52:07.647Z,10.80
2017-12-06T12:56:52.072Z,10.27
2017-12-06T13:01:37.411Z,11.07
2017-12-06T13:06:21.955Z,10.50
2017-12-06T13:11:06.888Z,10.20
2017-12-06T13:15:51.483Z,10.40
2017-12-06T13:20:36.004Z,10.93
2017-12-06T13:25:20.383Z,10.70
2017-12-06T13:30:04.915Z,10.40
2017-12-06T13:34:49.389Z,10.10
2017-12-06T13:39:33.824Z,9.63
2017-12-06T13:44:18.261Z,10.87
2017-12-06T13:49:02.790Z,10.30
2017-12-06T13:53:47.934Z,11.20
2017-12-06T13:58:32.322Z,10.43
2017-12-06T14:03:17.184Z,9.87
2017-12-06T14:08:01.592Z,10.27
2017-12-06T14:12:47.160Z,10.07
2017-12-06T14:17:31.506Z,11.93
2017-12-06T14:22:15.910Z,10.87
2017-12-06T14:27:00.320Z,10.47
2017-12-06T14:31:44.750Z,10.07
2017-12-06T14:36:29.166Z,9.67
2017-12-06T14:41:13.740Z,9.77
2017-12-06T14:45:58.761Z,9.70
2017-12-06T14:50:43.325Z,10.40
2017-12-06T14:55:27.886Z,9.83
2017-12-06T15:00:12.362Z,10.07
2017-12-06T15:04:56.756Z,10.87
2017-12-06T15:09:42.092Z,11.43
2017-12-06T15:14:26.539Z,10.87
2017-12-06T15:19:10.943Z,10.07
2017-12-06T15:23:55.398Z,10.03
2017-12-06T15:28:40.472Z,10.43
2017-12-06T15:33:24.948Z,11.13
2017-12-06T15:38:09.402Z,10.13
2017-12-06T15:42:53.819Z,9.70
2017-12-06T15:47:39.023Z,11.43
2017-12-06T15:52:23.418Z,10.70
2017-12-06T15:57:08.637Z,10.83
2017-12-06T16:01:53.030Z,10.70
2017-12-06T16:06:37.378Z,10.57
2017-12-06T16:11:21.758Z,11.63
2017-12-06T16:16:07.522Z,10.67
2017-12-06T16:20:52.022Z,11.43
2017-12-06T16:25:36.780Z,13.90
2017-12-06T16:30:21.286Z,15.30
2017-12-06T16:35:14.550Z,10.83
2017-12-06T16:39:58.936Z,11.23
2017-12-06T16:44:43.270Z,15.87
2017-12-06T16:49:28.022Z,12.03
2017-12-06T16:54:13.179Z,10.23
2017-12-06T16:58:57.626Z,11.03
2017-12-06T17:03:42.833Z,10.93
2017-12-06T17:08:27.281Z,10.73
2017-12-06T17:13:11.974Z,11.37
2017-12-06T17:17:56.418Z,12.67
2017-12-06T17:22:40.847Z,9.87
2017-12-06T17:27:26.854Z,11.47
2017-12-06T17:32:12.012Z,13.17
2017-12-06T17:36:56.407Z,13.37
2017-12-06T17:41:41.640Z,10.57
2017-12-06T17:46:26.241Z,11.43
2017-12-06T17:51:10.759Z,10.13
2017-12-06T17:55:55.182Z,11.57
2017-12-06T18:00:39.640Z,10.90
2017-12-06T18:05:24.822Z,10.80
2017-12-06T18:10:10.130Z,10.53
2017-12-06T18:14:54.508Z,9.60
2017-12-06T18:19:38.966Z,10.37
2017-12-06T18:24:23.385Z,11.20
2017-12-06T18:29:07.807Z,10.60
2017-12-06T18:33:53.715Z,9.77
2017-12-06T18:38:39.119Z,10.63
2017-12-06T18:43:24.306Z,10.23
2017-12-06T18:48:08.919Z,9.83
2017-12-06T18:52:53.416Z,10.57
2017-12-06T18:57:37.733Z,9.93
2017-12-06T19:02:22.163Z,10.23
2017-12-06T19:07:07.224Z,9.57
2017-12-06T19:11:52.291Z,9.23
2017-12-06T19:16:41.657Z,10.23
2017-12-06T19:21:31.325Z,10.83
2017-12-06T19:26:18.565Z,9.43
2017-12-06T19:31:04.063Z,8.60
2017-12-06T19:35:48.567Z,9.67
2017-12-06T19:40:33.677Z,9.63
2017-12-06T19:45:18.907Z,9.43
2017-12-06T19:50:09.270Z,9.40
2017-12-06T19:54:53.723Z,10.37
2017-12-06T19:59:38.636Z,9.87
2017-12-06T20:04:22.943Z,9.90
2017-12-06T20:09:07.338Z,9.83
2017-12-06T20:13:52.547Z,9.50
2017-12-06T20:18:37.006Z,10.40
2017-12-06T20:23:21.731Z,9.87
2017-12-06T20:28:09.585Z,9.70
2017-12-06T20:33:02.373Z,9.70
2017-12-06T20:38:01.662Z,9.53
2017-12-06T20:42:52.184Z,9.47
2017-12-06T20:47:37.858Z,10.33
2017-12-06T20:52:22.301Z,9.90
2017-12-06T20:57:06.701Z,10.13
2017-12-06T21:01:50.983Z,9.70
2017-12-06T21:06:35.332Z,8.50
2017-12-06T21:11:19.686Z,8.97
2017-12-06T21:16:04.470Z,9.23
2017-12-06T21:20:49.675Z,8.80
2017-12-06T21:25:34.840Z,7.67
2017-12-06T21:30:19.183Z,8.40
2017-12-06T21:35:04.459Z,8.43
2017-12-06T21:39:48.910Z,7.30
2017-12-06T21:44:33.272Z,8.23
2017-12-06T21:49:18.543Z,8.80
2017-12-06T21:54:03.057Z,7.93
2017-12-06T21:58:47.503Z,7.07
2017-12-06T22:03:32.706Z,7.43
2017-12-06T22:08:17.157Z,7.20
2017-12-06T22:14:05.123Z,8.37
2017-12-06T22:18:49.609Z,7.57
2017-12-06T22:23:33.895Z,8.47
2017-12-06T22:28:18.265Z,8.37
2017-12-06T22:33:02.571Z,8.07
2017-12-06T22:37:47.611Z,8.13
2017-12-06T22:42:31.945Z,8.30
2017-12-06T22:47:17.152Z,7.37
2017-12-06T22:52:01.460Z,7.20
2017-12-06T22:56:45.767Z,7.43
2017-12-06T23:01:30.273Z,7.90
2017-12-06T23:06:14.771Z,8.23
2017-12-06T23:10:59.162Z,8.53
2017-12-06T23:15:43.467Z,8.10
2017-12-06T23:20:27.722Z,8.33
2017-12-06T23:25:12.063Z,7.47
2017-12-06T23:29:56.332Z,8.50
2017-12-06T23:34:41.485Z,8.73
2017-12-06T23:39:32.599Z,9.70
2017-12-06T23:44:16.930Z,8.57
2017-12-06T23:49:01.257Z,8.30
2017-12-06T23:53:45.587Z,8.03
2017-12-06T23:58:30.250Z,8.67
